Time;durP1;ratioP1;P1;durP2;ratioP2;P2;SDS_P1;SDS_P2;PMS_P1;PMS_P2;Temp;Humidity;BMP_temperature;BMP_pressure;BME280_temperature;BME280_humidity;BME280_pressure;Samples;Min_cycle;Max_cycle;Signal;HPM_P1;HPM_P2
2022/06/03 00:02:51;;;;;;;11.10;4.83;;;11.10;99.90;;;;;;10384082;28;20194;-80
2022/06/03 00:08:52;;;;;;;5.30;3.23;;;11.10;99.90;;;;;;10356251;28;20198;-79
2022/06/03 00:14:34;;;;;;;7.13;4.63;;;11.10;99.90;;;;;;10355486;28;20508;-80
2022/06/03 00:20:16;;;;;;;7.93;3.70;;;11.10;99.90;;;;;;10345644;28;20263;-85
2022/06/03 00:26:28;;;;;;;6.90;3.80;;;11.00;99.90;;;;;;10322235;28;20235;-80
2022/06/03 00:32:21;;;;;;;7.13;4.80;;;11.00;99.90;;;;;;11251952;23;20254;-81
2022/06/03 00:38:10;;;;;;;5.50;3.87;;;11.00;99.90;;;;;;10377113;28;20221;-82
2022/06/03 00:43:51;;;;;;;9.27;4.80;;;11.00;99.90;;;;;;10367239;28;20486;-82
2022/06/03 00:49:31;;;;;;;6.03;3.93;;;10.90;99.90;;;;;;10389706;28;20246;-87
2022/06/03 00:54:59;;;;;;;5.23;3.87;;;11.00;99.90;;;;;;10357816;28;20219;-83
2022/06/03 01:00:27;;;;;;;6.27;3.67;;;11.10;99.90;;;;;;10380005;28;20417;-82
2022/06/03 01:05:58;;;;;;;4.23;3.00;;;11.20;99.90;;;;;;10380239;28;20199;-80
2022/06/03 01:11:57;;;;;;;3.77;2.97;;;11.20;99.90;;;;;;10406470;28;20191;-83
2022/06/03 01:17:25;;;;;;;9.93;4.90;;;11.20;99.90;;;;;;10373974;28;20232;-82
2022/06/03 01:23:06;;;;;;;7.93;4.77;;;11.20;99.90;;;;;;10379416;28;20200;-83
2022/06/03 01:29:05;;;;;;;4.67;3.33;;;11.20;99.90;;;;;;10407664;28;20190;-82
2022/06/03 01:34:35;;;;;;;5.13;3.07;;;11.20;99.90;;;;;;10381301;28;20219;-83
2022/06/03 01:40:15;;;;;;;7.67;4.07;;;11.20;99.90;;;;;;10389874;28;20227;-82
2022/06/03 01:45:58;;;;;;;8.63;4.17;;;11.30;99.90;;;;;;10405530;28;20467;-84
2022/06/03 01:51:49;;;;;;;10.77;4.97;;;11.20;99.90;;;;;;10386088;28;20187;-84
2022/06/03 01:57:43;;;;;;;6.13;4.43;;;11.20;99.90;;;;;;10361200;28;20233;-81
2022/06/03 02:03:10;;;;;;;10.77;5.27;;;11.30;99.90;;;;;;10394284;28;20184;-83
2022/06/03 02:08:50;;;;;;;8.33;4.37;;;11.30;99.90;;;;;;10420979;28;20488;-82
2022/06/03 02:14:23;;;;;;;5.60;4.07;;;11.30;99.90;;;;;;10404831;28;20285;-82
2022/06/03 02:19:44;;;;;;;10.53;5.20;;;11.20;99.90;;;;;;10388966;28;20226;-85
2022/06/03 02:25:21;;;;;;;8.00;4.37;;;11.20;99.90;;;;;;10405845;28;20195;-85
2022/06/03 02:31:20;;;;;;;5.17;3.67;;;11.30;99.90;;;;;;10420503;28;20242;-81
2022/06/03 02:36:53;;;;;;;4.00;3.50;;;11.30;99.90;;;;;;10390988;28;20206;-82
2022/06/03 02:42:18;;;;;;;7.17;4.57;;;11.30;99.90;;;;;;10363561;28;20235;-81
2022/06/03 02:47:59;;;;;;;7.30;3.70;;;11.30;99.90;;;;;;10378452;28;20202;-82
2022/06/03 02:53:20;;;;;;;5.03;3.80;;;11.30;99.90;;;;;;10363281;28;20211;-81
2022/06/03 02:59:11;;;;;;;3.60;3.30;;;11.30;99.90;;;;;;10379833;28;20415;-82
2022/06/03 03:04:54;;;;;;;6.57;3.13;;;11.30;99.90;;;;;;10363487;28;20554;-81
2022/06/03 03:10:15;;;;;;;3.53;3.00;;;11.30;99.90;;;;;;10350386;28;20196;-82
2022/06/03 03:15:42;;;;;;;5.80;3.83;;;11.40;99.90;;;;;;10362963;28;20235;-82
2022/06/03 03:21:30;;;;;;;5.73;3.80;;;11.30;99.90;;;;;;10395464;28;20235;-83
2022/06/03 03:27:23;;;;;;;4.40;4.00;;;11.30;99.90;;;;;;10427319;28;20198;-84
2022/06/03 03:33:22;;;;;;;4.53;3.90;;;11.30;99.90;;;;;;10276425;28;20264;-83
2022/06/03 03:39:20;;;;;;;4.40;3.83;;;11.30;99.90;;;;;;10259543;28;20245;-83
2022/06/03 03:45:10;;;;;;;4.23;3.57;;;11.30;99.90;;;;;;10259797;29;20210;-85
2022/06/03 03:50:37;;;;;;;4.50;3.50;;;11.40;99.90;;;;;;10142606;29;20422;-84
2022/06/03 03:56:35;;;;;;;8.50;3.60;;;11.40;99.90;;;;;;10157386;29;20212;-82
2022/06/03 04:02:41;;;;;;;5.70;3.33;;;11.50;99.90;;;;;;10154562;29;20204;-82
2022/06/03 04:08:23;;;;;;;5.57;3.57;;;11.60;99.90;;;;;;10239080;28;20203;-86
2022/06/03 04:14:13;;;;;;;8.00;4.17;;;11.60;99.90;;;;;;10339090;28;20212;-86
2022/06/03 04:19:52;;;;;;;5.93;4.10;;;11.60;99.90;;;;;;10322090;28;20247;-85
2022/06/03 04:25:51;;;;;;;4.80;3.83;;;11.50;99.90;;;;;;10344289;28;20497;-85
2022/06/03 04:31:54;;;;;;;5.07;3.70;;;11.60;99.90;;;;;;10405760;28;20289;-87
2022/06/03 04:37:51;;;;;;;6.07;3.80;;;11.60;99.90;;;;;;10262253;28;20232;-85
2022/06/03 04:43:40;;;;;;;5.40;3.83;;;11.80;99.90;;;;;;10270883;28;20464;-86
2022/06/03 04:49:42;;;;;;;8.33;4.37;;;12.00;99.90;;;;;;10300123;28;20514;-87
2022/06/03 04:55:22;;;;;;;5.77;4.23;;;12.00;99.90;;;;;;10284619;28;20275;-84
2022/06/03 05:01:13;;;;;;;6.57;3.80;;;12.00;99.90;;;;;;10260738;28;20300;-86
2022/06/03 05:06:34;;;;;;;5.47;4.40;;;12.00;99.90;;;;;;10273324;29;20571;-87
2022/06/03 05:12:37;;;;;;;5.07;4.13;;;12.10;99.90;;;;;;10376011;28;20286;-89
2022/06/03 05:18:02;;;;;;;6.10;3.87;;;12.10;99.90;;;;;;10409676;28;20239;-83
2022/06/03 05:23:55;;;;;;;5.27;4.00;;;12.30;99.90;;;;;;10423034;28;20222;-84
2022/06/03 05:29:22;;;;;;;5.53;3.20;;;12.50;99.90;;;;;;10407666;28;20204;-84
2022/06/03 05:35:04;;;;;;;7.10;3.63;;;12.60;99.90;;;;;;10419579;28;20199;-84
2022/06/03 05:40:28;;;;;;;5.57;3.47;;;12.80;99.90;;;;;;10405256;28;20290;-81
2022/06/03 05:46:07;;;;;;;4.25;2.92;;;13.00;99.90;;;;;;10396563;28;20210;-82
2022/06/03 05:51:34;;;;;;;5.22;3.35;;;13.10;99.90;;;;;;10364537;28;20200;-87
2022/06/03 05:57:17;;;;;;;6.22;3.67;;;13.30;99.90;;;;;;10377874;28;20437;-82
2022/06/03 06:03:03;;;;;;;7.20;3.28;;;13.50;90.70;;;;;;10402299;28;20282;-81
2022/06/03 06:08:43;;;;;;;6.70;2.88;;;13.80;74.00;;;;;;10403905;28;20201;-82
2022/06/03 06:14:04;;;;;;;8.05;2.92;;;14.10;48.30;;;;;;10380161;28;20251;-83
2022/06/03 06:19:45;;;;;;;5.68;2.92;;;14.30;60.00;;;;;;10391725;28;20476;-82
2022/06/03 06:25:35;;;;;;;10.70;3.00;;;14.60;50.10;;;;;;10379739;28;20356;-82
2022/06/03 06:30:59;;;;;;;4.72;2.22;;;15.00;28.70;;;;;;10419991;28;20274;-81
2022/06/03 06:36:38;;;;;;;3.92;2.67;;;15.20;33.50;;;;;;10434370;28;20209;-82
2022/06/03 06:42:41;;;;;;;8.07;3.45;;;15.30;27.90;;;;;;10421546;28;20513;-85
2022/06/03 06:48:14;;;;;;;5.55;2.60;;;15.50;6.60;;;;;;10403116;28;20202;-81
2022/06/03 06:53:44;;;;;;;8.73;3.10;;;15.80;8.70;;;;;;10363831;28;20400;-81
2022/06/03 06:59:18;;;;;;;14.40;5.80;;;16.10;25.90;;;;;;10378670;28;20258;-87
2022/06/03 07:04:49;;;;;;;8.35;2.63;;;16.80;99.90;;;;;;10410993;28;20270;-84
2022/06/03 07:10:27;;;;;;;4.22;2.03;;;17.00;99.90;;;;;;10397787;23;20236;-84
2022/06/03 07:16:03;;;;;;;8.40;2.67;;;17.60;99.90;;;;;;10367322;28;20200;-87
2022/06/03 07:21:30;;;;;;;3.38;1.85;;;18.40;99.90;;;;;;10340792;28;20598;-84
2022/06/03 07:26:57;;;;;;;7.55;1.77;;;18.80;99.90;;;;;;10343329;28;20197;-86
2022/06/03 07:32:26;;;;;;;6.03;2.28;;;18.80;97.20;;;;;;10337467;28;20213;-85
2022/06/03 07:38:17;;;;;;;2.28;1.75;;;17.80;98.10;;;;;;10327829;28;20236;-84
2022/06/03 07:44:10;;;;;;;3.50;1.85;;;17.80;98.10;;;;;;10360031;28;20231;-84
2022/06/03 07:49:38;;;;;;;3.28;2.05;;;17.90;97.10;;;;;;10365095;28;20295;-84
2022/06/03 07:55:05;;;;;;;3.53;1.75;;;18.60;92.80;;;;;;10364750;28;20201;-85
2022/06/03 08:00:26;;;;;;;5.97;2.17;;;19.00;91.70;;;;;;10378986;28;20228;-84
2022/06/03 08:05:55;;;;;;;3.90;1.90;;;19.80;90.50;;;;;;10365747;28;20372;-84
2022/06/03 08:11:33;;;;;;;7.15;2.30;;;20.30;78.60;;;;;;10366354;28;20276;-85
2022/06/03 08:16:55;;;;;;;3.25;1.92;;;20.50;99.90;;;;;;10364151;28;20276;-85
2022/06/03 08:22:21;;;;;;;4.55;2.08;;;20.70;99.90;;;;;;10364852;28;20245;-84
2022/06/03 08:27:44;;;;;;;3.53;2.05;;;20.90;99.90;;;;;;10349263;28;20205;-85
2022/06/03 08:33:08;;;;;;;2.22;1.80;;;21.50;99.90;;;;;;10332236;28;20202;-84
2022/06/03 08:38:57;;;;;;;3.63;1.58;;;22.30;1.00;;;;;;10380410;28;20301;-84
2022/06/03 08:44:49;;;;;;;3.67;1.60;;;22.30;1.00;;;;;;10350613;28;20212;-83
2022/06/03 08:50:25;;;;;;;7.65;3.13;;;22.70;99.90;;;;;;10363478;28;20205;-90
2022/06/03 08:55:54;;;;;;;7.63;1.98;;;23.00;99.90;;;;;;10376735;28;20419;-85
2022/06/03 09:01:15;;;;;;;2.80;1.80;;;23.40;19.40;;;;;;10378663;28;20217;-81
2022/06/03 09:06:46;;;;;;;4.68;1.92;;;23.60;1.00;;;;;;10349931;28;20228;-85
2022/06/03 09:12:11;;;;;;;5.57;1.95;;;23.90;1.00;;;;;;10362041;28;20233;-84
2022/06/03 09:17:40;;;;;;;5.15;3.80;;;24.20;1.00;;;;;;10361115;28;20243;-85
2022/06/03 09:23:08;;;;;;;5.05;1.80;;;23.70;99.90;;;;;;10361805;28;20445;-83
2022/06/03 09:28:33;;;;;;;3.67;2.03;;;24.00;99.90;;;;;;10362292;28;20209;-85
2022/06/03 09:33:57;;;;;;;1.60;1.40;;;24.40;99.90;;;;;;10350805;28;20209;-89
2022/06/03 09:39:19;;;;;;;2.35;1.65;;;24.60;99.90;;;;;;10378139;28;20220;-86
2022/06/03 09:44:44;;;;;;;2.25;1.13;;;24.50;1.00;;;;;;10347891;28;20201;-83
2022/06/03 09:50:05;;;;;;;6.97;1.92;;;24.60;1.00;;;;;;10360485;28;20205;-83
2022/06/03 09:55:32;;;;;;;2.72;1.55;;;24.80;99.90;;;;;;10322915;28;20448;-83
2022/06/03 10:00:56;;;;;;;5.65;3.75;;;24.90;1.00;;;;;;10320415;28;20229;-87
2022/06/03 10:17:37;;;;;;;5.22;1.42;;;24.90;1.00;;;;;;10350428;28;20201;-87
2022/06/03 10:22:59;;;;;;;4.45;2.83;;;24.80;1.00;;;;;;10338592;28;20201;-86
2022/06/03 10:28:20;;;;;;;3.13;1.42;;;25.30;1.00;;;;;;10285768;28;20202;-86
2022/06/03 10:33:56;;;;;;;3.35;1.65;;;25.00;1.00;;;;;;10342388;28;20201;-86
2022/06/03 10:39:19;;;;;;;2.08;1.67;;;24.90;1.00;;;;;;10345325;28;20241;-86
2022/06/03 10:44:45;;;;;;;3.35;1.30;;;24.50;1.00;;;;;;10346258;28;20214;-84
2022/06/03 10:50:23;;;;;;;2.35;1.30;;;24.80;1.00;;;;;;10330377;28;20193;-86
2022/06/03 11:01:41;;;;;;;2.28;1.52;;;25.10;1.00;;;;;;10312153;28;20245;-85
2022/06/03 11:07:25;;;;;;;2.25;1.70;;;24.50;1.00;;;;;;10325328;28;20665;-83
2022/06/03 11:12:46;;;;;;;3.85;1.60;;;23.90;1.00;;;;;;10351790;28;20236;-84
2022/06/03 11:18:22;;;;;;;1.83;1.33;;;24.40;1.00;;;;;;10340696;28;20217;-83
2022/06/03 11:23:43;;;;;;;4.18;2.03;;;24.20;1.00;;;;;;10338904;28;20210;-84
2022/06/03 11:29:31;;;;;;;4.28;1.77;;;23.80;1.00;;;;;;10339385;28;20239;-84
2022/06/03 11:35:03;;;;;;;3.35;1.42;;;24.40;1.00;;;;;;10310708;28;20206;-85
2022/06/03 11:40:37;;;;;;;1.92;1.58;;;24.40;1.00;;;;;;10298577;28;20566;-86
2022/06/03 11:46:08;;;;;;;3.08;1.33;;;24.70;1.00;;;;;;10298648;28;20249;-84
2022/06/03 11:51:30;;;;;;;3.17;1.75;;;25.30;1.00;;;;;;10314756;28;20586;-82
2022/06/03 11:56:51;;;;;;;2.58;1.60;;;25.00;1.00;;;;;;10315397;28;20237;-84
2022/06/03 12:02:13;;;;;;;2.47;1.45;;;25.60;1.00;;;;;;10301727;28;20233;-82
2022/06/03 12:07:53;;;;;;;1.70;1.40;;;25.70;1.00;;;;;;10283964;28;20213;-84
2022/06/03 12:13:21;;;;;;;1.70;1.30;;;25.40;1.00;;;;;;10346763;28;20202;-84
2022/06/03 12:19:02;;;;;;;2.33;1.55;;;25.10;1.00;;;;;;10309810;28;20342;-83
2022/06/03 12:24:32;;;;;;;2.00;1.30;;;24.30;1.00;;;;;;10323244;28;20242;-83
2022/06/03 12:30:14;;;;;;;1.92;1.48;;;23.70;1.00;;;;;;10336015;28;20210;-82
2022/06/03 12:35:48;;;;;;;1.95;1.45;;;24.50;1.00;;;;;;10312582;28;20437;-83
2022/06/03 12:41:10;;;;;;;4.40;1.60;;;25.10;1.00;;;;;;10336957;28;20230;-84
2022/06/03 12:46:43;;;;;;;2.85;1.40;;;24.90;99.90;;;;;;10334679;28;20500;-84
2022/06/03 12:52:11;;;;;;;1.63;1.30;;;25.10;99.90;;;;;;10335384;28;20306;-84
2022/06/03 12:57:55;;;;;;;3.58;1.50;;;25.40;99.90;;;;;;10336453;28;20189;-86
2022/06/03 13:03:16;;;;;;;2.47;2.15;;;25.40;99.90;;;;;;10339047;28;20204;-87
2022/06/03 13:14:32;;;;;;;2.38;1.25;;;25.30;99.90;;;;;;10344532;28;20203;-84
2022/06/03 13:20:00;;;;;;;2.38;1.45;;;25.30;99.90;;;;;;10362543;28;20244;-87
2022/06/03 13:25:24;;;;;;;2.58;1.33;;;24.80;99.90;;;;;;10348642;28;20225;-84
2022/06/03 13:31:13;;;;;;;1.30;1.20;;;24.60;99.90;;;;;;10331831;28;20207;-84
2022/06/03 13:36:40;;;;;;;4.13;1.60;;;24.80;99.90;;;;;;10361064;28;20608;-88
2022/06/03 13:47:56;;;;;;;1.33;1.20;;;25.10;99.90;;;;;;10374307;28;20199;-83
2022/06/03 13:53:49;;;;;;;1.60;1.35;;;24.50;99.90;;;;;;10360439;28;20247;-85
2022/06/03 13:59:16;;;;;;;2.88;1.83;;;24.60;99.90;;;;;;10349472;28;20433;-82
2022/06/03 14:04:49;;;;;;;2.10;1.38;;;24.60;99.90;;;;;;10330724;28;20197;-85
2022/06/03 14:10:20;;;;;;;5.85;3.22;;;24.40;1.00;;;;;;10355709;28;20229;-83
2022/06/03 14:16:06;;;;;;;1.45;1.20;;;24.00;1.00;;;;;;10360245;28;20216;-88
2022/06/03 14:21:37;;;;;;;1.92;1.33;;;24.10;1.00;;;;;;10358634;28;20240;-86
2022/06/03 14:27:28;;;;;;;1.20;1.10;;;23.90;99.90;;;;;;10344005;28;20220;-83
2022/06/03 14:32:55;;;;;;;1.10;1.00;;;23.70;1.00;;;;;;10353511;28;20209;-83
2022/06/03 14:38:35;;;;;;;1.75;1.45;;;23.60;1.00;;;;;;10357136;28;20272;-83
2022/06/03 14:43:59;;;;;;;1.73;1.20;;;23.50;99.90;;;;;;10339090;28;20208;-82
2022/06/03 14:49:43;;;;;;;3.20;1.52;;;23.50;1.00;;;;;;10342498;28;20201;-82
2022/06/03 14:55:11;;;;;;;2.05;1.27;;;23.30;1.00;;;;;;10334658;28;20293;-88
2022/06/03 15:00:43;;;;;;;1.45;1.33;;;22.90;1.00;;;;;;10307867;28;20225;-84
2022/06/03 15:06:23;;;;;;;2.72;1.40;;;22.80;1.00;;;;;;10330078;28;20281;-90
2022/06/03 15:11:57;;;;;;;1.92;1.20;;;22.70;1.00;;;;;;10327807;28;20473;-81
2022/06/03 15:17:31;;;;;;;1.60;1.10;;;22.80;1.00;;;;;;10355602;28;20201;-85
2022/06/03 15:22:57;;;;;;;1.55;1.30;;;22.70;1.00;;;;;;10396626;28;20233;-82
2022/06/03 15:28:18;;;;;;;3.10;1.20;;;22.70;1.00;;;;;;10373197;28;20201;-80
2022/06/03 15:33:44;;;;;;;2.55;1.38;;;22.50;1.00;;;;;;10355739;28;20205;-81
2022/06/03 15:39:36;;;;;;;1.20;1.10;;;22.30;1.00;;;;;;10371891;28;20572;-79
2022/06/03 15:45:03;;;;;;;1.65;1.20;;;22.10;1.00;;;;;;10384087;28;20205;-81
2022/06/03 15:50:25;;;;;;;2.05;1.45;;;22.00;1.00;;;;;;10361533;28;20221;-80
2022/06/03 15:55:59;;;;;;;1.92;1.30;;;22.00;1.00;;;;;;10386895;28;20264;-82
2022/06/03 16:01:29;;;;;;;2.47;1.55;;;22.10;1.00;;;;;;10374731;28;20235;-78
2022/06/03 16:07:13;;;;;;;2.45;1.65;;;22.20;1.00;;;;;;10369371;28;20487;-81
2022/06/03 16:12:52;;;;;;;2.88;2.33;;;22.00;1.00;;;;;;10385328;28;20398;-81
2022/06/03 16:18:53;;;;;;;2.15;1.55;;;21.80;1.00;;;;;;10330126;28;20189;-82
2022/06/03 16:24:30;;;;;;;2.38;1.50;;;21.50;1.00;;;;;;10371679;28;20542;-82
2022/06/03 16:29:59;;;;;;;3.67;2.08;;;21.50;1.00;;;;;;10333970;28;20202;-81
2022/06/03 16:35:55;;;;;;;3.45;2.65;;;21.40;1.00;;;;;;10331615;28;20476;-81
2022/06/03 16:41:44;;;;;;;6.72;6.13;;;21.30;1.00;;;;;;10330157;28;20229;-81
2022/06/03 16:47:20;;;;;;;12.00;10.80;;;21.20;1.00;;;;;;10345607;28;20461;-81
2022/06/03 16:52:50;;;;;;;7.65;6.47;;;21.10;1.00;;;;;;10362341;28;20194;-81
2022/06/03 16:58:16;;;;;;;4.90;3.83;;;21.00;1.00;;;;;;10349755;28;20264;-81
2022/06/03 17:03:44;;;;;;;11.30;5.90;;;21.00;1.00;;;;;;10351037;28;20204;-82
2022/06/03 17:09:05;;;;;;;7.45;5.00;;;21.00;1.00;;;;;;10383504;28;20237;-81
2022/06/03 17:14:33;;;;;;;20.20;8.60;;;20.90;1.00;;;;;;10333855;28;20205;-81
2022/06/03 17:20:16;;;;;;;12.65;7.75;;;20.80;1.00;;;;;;10366210;28;20271;-81
2022/06/03 17:25:48;;;;;;;13.40;8.25;;;20.70;1.00;;;;;;10380132;28;20197;-81
2022/06/03 17:31:12;;;;;;;12.32;6.78;;;20.60;1.00;;;;;;10382309;28;20384;-83
2022/06/03 17:37:12;;;;;;;10.18;6.20;;;20.50;1.00;;;;;;10382913;28;20260;-81
2022/06/03 17:42:58;;;;;;;12.00;6.90;;;20.50;1.00;;;;;;10219213;29;20262;-81
2022/06/03 17:48:48;;;;;;;8.10;4.18;;;20.50;1.00;;;;;;10186600;29;20215;-88
2022/06/03 18:00:37;;;;;;;7.82;3.33;;;19.70;5.30;;;;;;10115455;29;20257;-82
2022/06/03 18:06:35;;;;;;;4.75;3.00;;;19.30;1.00;;;;;;10103434;29;20202;-91
2022/06/03 18:12:15;;;;;;;7.50;3.10;;;19.00;1.00;;;;;;10124457;29;20237;-81
2022/06/03 18:17:57;;;;;;;6.07;3.10;;;18.80;99.90;;;;;;10242478;28;20211;-82
2022/06/03 18:23:32;;;;;;;6.43;3.15;;;18.60;1.00;;;;;;10228673;28;20251;-87
2022/06/03 18:28:55;;;;;;;6.35;4.60;;;18.40;99.90;;;;;;10203999;29;20210;-82
2022/06/03 18:34:35;;;;;;;7.82;4.38;;;18.30;99.90;;;;;;10255930;28;20228;-81
2022/06/03 18:40:35;;;;;;;10.10;4.30;;;18.10;99.90;;;;;;10310331;28;20260;-84
2022/06/03 18:46:25;;;;;;;8.63;4.38;;;17.90;1.00;;;;;;10324018;28;20252;-83
2022/06/03 18:52:05;;;;;;;11.18;5.40;;;17.70;1.00;;;;;;10353468;28;20193;-82
2022/06/03 18:57:33;;;;;;;9.77;5.20;;;17.60;1.00;;;;;;10372274;28;20208;-81
2022/06/03 19:03:29;;;;;;;8.85;5.90;;;17.40;1.00;;;;;;10374756;28;20398;-83
2022/06/03 19:09:02;;;;;;;9.13;4.60;;;17.20;1.00;;;;;;10371333;28;20248;-81
2022/06/03 19:14:38;;;;;;;7.72;4.00;;;17.10;1.00;;;;;;10356675;28;20201;-82
2022/06/03 19:20:11;;;;;;;6.80;3.90;;;16.90;1.00;;;;;;10358130;28;20221;-81
2022/06/03 19:25:41;;;;;;;10.43;4.85;;;16.70;1.00;;;;;;10372038;28;20211;-86
2022/06/03 19:31:10;;;;;;;9.38;4.38;;;16.50;1.00;;;;;;10384854;28;20201;-82
2022/06/03 19:36:34;;;;;;;10.35;5.22;;;16.30;1.00;;;;;;10373352;28;20192;-84
2022/06/03 19:42:23;;;;;;;7.75;4.45;;;16.10;1.00;;;;;;10386912;28;20402;-84
2022/06/03 19:48:01;;;;;;;7.65;4.30;;;16.10;1.00;;;;;;10356087;28;20203;-83
2022/06/03 19:53:52;;;;;;;8.45;5.25;;;15.90;1.00;;;;;;10370500;28;20367;-82
2022/06/03 19:59:16;;;;;;;7.50;4.88;;;15.80;1.00;;;;;;10374388;28;20546;-80
2022/06/03 20:04:55;;;;;;;7.57;5.30;;;15.70;1.00;;;;;;10376531;28;20202;-83
2022/06/03 20:10:17;;;;;;;9.10;5.88;;;15.60;1.00;;;;;;10369522;28;20239;-81
2022/06/03 20:15:41;;;;;;;10.52;6.22;;;15.50;1.00;;;;;;10386036;28;20287;-81
2022/06/03 20:21:28;;;;;;;12.23;6.32;;;15.40;1.00;;;;;;10368848;28;20282;-81
2022/06/03 20:27:06;;;;;;;15.40;7.70;;;15.40;1.00;;;;;;10368560;28;20199;-82
2022/06/03 20:32:36;;;;;;;13.98;7.80;;;15.10;1.00;;;;;;10368847;28;20210;-88
2022/06/03 20:38:19;;;;;;;19.58;9.95;;;15.00;1.00;;;;;;10372064;28;20242;-83
2022/06/03 20:44:15;;;;;;;20.48;11.30;;;14.90;1.00;;;;;;10368812;28;20596;-80
2022/06/03 20:50:03;;;;;;;26.02;11.73;;;14.80;1.00;;;;;;10367552;28;20223;-83
2022/06/03 20:55:34;;;;;;;25.15;12.35;;;14.70;1.00;;;;;;10384302;28;20380;-81
2022/06/03 21:01:07;;;;;;;20.88;11.90;;;14.60;1.00;;;;;;10381142;28;20247;-81
2022/06/03 21:13:05;;;;;;;17.17;9.13;;;14.40;13.80;;;;;;10366825;28;20314;-81
2022/06/03 21:18:01;;;;;;;21.23;10.88;;;14.30;18.30;;;;;;10381935;28;20207;-80
2022/06/03 21:23:33;;;;;;;14.32;8.02;;;14.30;20.40;;;;;;10370219;28;20221;-80
2022/06/03 21:28:54;;;;;;;11.68;6.57;;;14.20;23.00;;;;;;10353799;28;20266;-81
2022/06/03 21:34:49;;;;;;;13.32;6.70;;;14.10;1.00;;;;;;10380183;28;20195;-80
2022/06/03 21:40:20;;;;;;;8.93;6.72;;;14.10;1.00;;;;;;10366810;28;20309;-84
2022/06/03 21:46:04;;;;;;;13.50;8.75;;;14.10;1.00;;;;;;10382928;28;20191;-81
2022/06/03 21:51:43;;;;;;;11.35;7.13;;;14.00;1.00;;;;;;10366630;28;20203;-80
2022/06/03 21:57:08;;;;;;;12.95;6.40;;;13.90;1.00;;;;;;10346624;28;20202;-82
2022/06/03 22:02:32;;;;;;;8.60;6.65;;;13.90;1.00;;;;;;10311478;28;20259;-81
2022/06/03 22:07:53;;;;;;;14.70;9.00;;;13.80;1.00;;;;;;10338304;28;20199;-81
2022/06/03 22:13:18;;;;;;;11.93;7.35;;;13.70;1.00;;;;;;10346951;28;20267;-80
2022/06/03 22:18:39;;;;;;;9.00;6.75;;;13.60;1.00;;;;;;10311206;28;20522;-81
2022/06/03 22:24:00;;;;;;;12.43;7.80;;;13.60;3.40;;;;;;10338064;28;20234;-82
2022/06/03 22:29:25;;;;;;;12.13;8.80;;;13.60;4.50;;;;;;10330198;28;20211;-80
2022/06/03 22:35:38;;;;;;;12.15;8.35;;;13.50;11.50;;;;;;10343637;28;20203;-81
2022/06/03 22:41:17;;;;;;;16.15;9.40;;;13.40;19.00;;;;;;10226760;29;20580;-81
2022/06/03 22:46:40;;;;;;;14.98;8.45;;;13.40;26.70;;;;;;10186469;29;20224;-81
2022/06/03 22:52:01;;;;;;;8.93;7.10;;;13.40;11.50;;;;;;10200448;29;20367;-80
2022/06/03 22:57:23;;;;;;;8.95;6.30;;;13.30;10.40;;;;;;10184135;29;20212;-80
2022/06/03 23:02:44;;;;;;;11.02;7.20;;;13.30;10.90;;;;;;10199718;29;20410;-90
2022/06/03 23:08:07;;;;;;;10.15;7.13;;;13.30;10.00;;;;;;10186282;29;20212;-81
2022/06/03 23:13:29;;;;;;;16.02;10.55;;;13.30;14.70;;;;;;10226050;28;20215;-80
2022/06/03 23:18:50;;;;;;;18.05;11.80;;;13.30;15.50;;;;;;10347787;28;20200;-81
2022/06/03 23:24:11;;;;;;;17.25;11.15;;;13.30;16.60;;;;;;10344447;28;20237;-84
2022/06/03 23:29:32;;;;;;;22.90;12.15;;;13.20;13.00;;;;;;10316910;28;20233;-81
2022/06/03 23:34:54;;;;;;;19.42;11.60;;;13.10;20.80;;;;;;10380365;28;20415;-86
2022/06/03 23:40:15;;;;;;;20.48;11.75;;;13.10;11.90;;;;;;10405718;28;20259;-80
2022/06/03 23:45:35;;;;;;;14.60;9.30;;;13.00;14.80;;;;;;10370916;28;20240;-79
2022/06/03 23:50:57;;;;;;;18.15;10.30;;;12.90;15.50;;;;;;10386734;28;20200;-80
2022/06/03 23:56:19;;;;;;;14.00;9.73;;;13.00;12.70;;;;;;10383329;28;20230;-79
